Cecilia, Kentucky
Current Conditions -  °F | °C
As of 10:18 AM on Monday 24 Nov 2014 (Local Time) from KFTK Reporting Station
Overcast Overcast  
Wind Chill: 50°   Ceiling: 1200
Heat Index: 50°   Visibility: 10mi
Dew Point: 45°   Wind: 20mph
Humidity: 82%   Direction: 250°WSW
Pressure: 29.56"   Gusts: 29mph
Location:  37.67°N, 85.96°W
Report Text: KFTK 241518Z AUTO 25017G25KT 10SM BKN012 OVC020 10/07 A2956 RMK AO2 PRESRR
Loading
Personal Weather Stations






























Interactive Weather Map New forecast layout! Learn more

10-Day Weather Forecast

Advertisements
Track Severe Weather on mobile